createdAt,value
2018-09-18T00:01:13.207Z,9.48
2018-09-18T00:03:41.247Z,7.77
2018-09-18T00:06:09.454Z,6.75
2018-09-18T00:08:37.512Z,8.30
2018-09-18T00:11:05.619Z,9.63
2018-09-18T00:13:33.659Z,8.13
2018-09-18T00:16:01.712Z,8.67
2018-09-18T00:18:29.739Z,8.63
2018-09-18T00:20:57.748Z,7.83
2018-09-18T00:23:25.782Z,9.30
2018-09-18T00:25:53.816Z,9.20
2018-09-18T00:28:21.864Z,8.68
2018-09-18T00:30:50.015Z,9.00
2018-09-18T00:33:18.037Z,9.48
2018-09-18T00:35:46.053Z,7.77
2018-09-18T00:38:14.107Z,9.23
2018-09-18T00:40:42.141Z,9.37
2018-09-18T00:43:10.166Z,9.10
2018-09-18T00:45:38.211Z,10.68
2018-09-18T00:48:06.239Z,10.93
2018-09-18T00:50:34.740Z,10.40
2018-09-18T00:53:02.832Z,10.83
2018-09-18T00:55:30.904Z,10.30
2018-09-18T00:57:58.950Z,10.77
2018-09-18T01:00:27.041Z,8.87
2018-09-18T01:02:55.067Z,9.80
2018-09-18T01:05:24.087Z,9.68
2018-09-18T01:07:52.125Z,9.43
2018-09-18T01:10:20.256Z,10.07
2018-09-18T01:12:48.353Z,9.77
2018-09-18T01:15:16.577Z,10.30
2018-09-18T01:17:44.600Z,9.67
2018-09-18T01:20:12.848Z,11.13
2018-09-18T01:22:40.967Z,9.87
2018-09-18T01:25:09.016Z,9.83
2018-09-18T01:27:37.247Z,11.70
2018-09-18T01:30:05.753Z,10.30
2018-09-18T01:32:33.795Z,10.70
2018-09-18T01:35:01.902Z,10.47
2018-09-18T01:37:30.248Z,9.63
2018-09-18T01:39:58.267Z,9.03
2018-09-18T01:42:26.284Z,9.90
2018-09-18T01:44:54.472Z,10.77
2018-09-18T01:47:22.576Z,11.03
2018-09-18T01:49:50.607Z,9.48
2018-09-18T01:52:18.647Z,10.23
2018-09-18T01:54:46.694Z,10.70
2018-09-18T01:57:14.744Z,10.45
2018-09-18T01:59:42.904Z,10.43
2018-09-18T02:02:10.944Z,9.93
2018-09-18T02:04:38.983Z,10.60
2018-09-18T02:07:07.125Z,10.82
2018-09-18T02:09:35.159Z,12.20
2018-09-18T02:12:03.236Z,10.27
2018-09-18T02:14:31.275Z,10.63
2018-09-18T02:16:59.332Z,10.60
2018-09-18T02:19:27.372Z,9.47
2018-09-18T02:21:55.409Z,10.57
2018-09-18T02:24:23.464Z,11.13
2018-09-18T02:26:51.497Z,10.03
2018-09-18T02:29:19.568Z,10.13
2018-09-18T02:31:47.679Z,11.23
2018-09-18T02:34:15.888Z,9.55
2018-09-18T02:36:43.923Z,9.90
2018-09-18T02:39:13.256Z,11.22
2018-09-18T02:41:41.888Z,10.90
2018-09-18T02:44:10.104Z,10.85
2018-09-18T02:46:38.131Z,9.43
2018-09-18T02:49:06.328Z,9.97
2018-09-18T02:51:34.403Z,9.77
2018-09-18T02:54:02.453Z,10.10
2018-09-18T02:56:30.663Z,10.97
2018-09-18T02:58:58.953Z,12.97
2018-09-18T03:01:26.981Z,10.40
2018-09-18T03:03:55.044Z,10.33
2018-09-18T03:06:23.319Z,11.67
2018-09-18T03:08:51.379Z,11.33
2018-09-18T03:11:19.463Z,9.70
2018-09-18T03:13:47.792Z,10.77
2018-09-18T03:16:15.833Z,9.80
2018-09-18T03:18:43.902Z,10.87
2018-09-18T03:21:12.013Z,9.18
2018-09-18T03:23:40.028Z,9.40
2018-09-18T03:26:08.314Z,9.03
2018-09-18T03:28:36.333Z,11.90
2018-09-18T03:31:05.212Z,9.98
2018-09-18T03:33:33.240Z,9.43
2018-09-18T03:36:01.276Z,9.20
2018-09-18T03:38:29.287Z,9.60
2018-09-18T03:40:57.774Z,10.70
2018-09-18T03:43:25.825Z,10.35
2018-09-18T03:45:53.859Z,10.10
2018-09-18T03:48:22.040Z,9.60
2018-09-18T03:50:50.060Z,9.60
2018-09-18T03:53:18.132Z,9.85
2018-09-18T03:55:46.179Z,9.13
2018-09-18T03:58:14.279Z,9.90
2018-09-18T04:00:42.959Z,9.93
2018-09-18T04:03:11.040Z,10.67
2018-09-18T04:05:39.080Z,9.77
2018-09-18T04:08:07.481Z,10.57
2018-09-18T04:10:35.500Z,9.00
2018-09-18T04:13:03.541Z,10.87
2018-09-18T04:15:32.006Z,10.53
2018-09-18T04:18:00.052Z,10.67
2018-09-18T04:20:28.100Z,9.27
2018-09-18T04:22:56.224Z,9.37
2018-09-18T04:25:24.305Z,9.87
2018-09-18T04:27:55.438Z,9.00
2018-09-18T04:30:23.542Z,9.30
2018-09-18T04:32:51.574Z,9.13
2018-09-18T04:35:19.606Z,9.73
2018-09-18T04:37:47.623Z,9.43
2018-09-18T04:40:15.667Z,10.20
2018-09-18T04:42:43.712Z,9.63
2018-09-18T04:45:11.775Z,11.35
2018-09-18T04:47:39.972Z,10.05
2018-09-18T04:50:08.076Z,9.17
2018-09-18T04:52:36.154Z,10.17
2018-09-18T04:55:04.803Z,9.50
2018-09-18T04:57:33.211Z,9.17
2018-09-18T05:00:01.238Z,9.67
2018-09-18T05:02:29.272Z,10.10
2018-09-18T05:04:57.301Z,9.57
2018-09-18T05:07:25.348Z,9.63
2018-09-18T05:09:53.393Z,8.90
2018-09-18T05:12:21.490Z,8.70
2018-09-18T05:14:49.517Z,8.47
2018-09-18T05:17:17.676Z,9.33
2018-09-18T05:19:45.724Z,9.50
2018-09-18T05:22:13.909Z,8.57
2018-09-18T05:24:41.964Z,8.80
2018-09-18T05:27:10.048Z,8.85
2018-09-18T05:29:38.143Z,9.07
2018-09-18T05:32:06.525Z,9.37
2018-09-18T05:34:34.585Z,7.70
2018-09-18T05:37:02.651Z,10.13
2018-09-18T05:39:30.726Z,10.70
2018-09-18T05:41:59.105Z,19.10
2018-09-18T05:44:27.183Z,18.33
2018-09-18T05:46:55.269Z,16.87
2018-09-18T05:49:25.266Z,12.70
2018-09-18T05:51:53.294Z,11.70
2018-09-18T05:54:21.420Z,12.57
2018-09-18T05:56:49.492Z,10.03
2018-09-18T05:59:17.559Z,9.73
2018-09-18T06:01:45.594Z,9.33
2018-09-18T06:04:13.653Z,9.60
2018-09-18T06:06:41.692Z,9.63
2018-09-18T06:09:10.815Z,8.88
2018-09-18T06:11:38.892Z,9.17
2018-09-18T06:14:06.948Z,9.20
2018-09-18T06:16:35.339Z,9.90
2018-09-18T06:19:03.524Z,9.33
2018-09-18T06:21:31.572Z,9.53
2018-09-18T06:23:59.961Z,9.17
2018-09-18T06:26:28.670Z,9.57
2018-09-18T06:28:56.879Z,10.17
2018-09-18T06:31:24.927Z,8.93
2018-09-18T06:33:53.569Z,9.93
2018-09-18T06:36:22.002Z,9.63
2018-09-18T06:38:50.239Z,8.53
2018-09-18T06:41:18.313Z,8.30
2018-09-18T06:43:46.438Z,8.83
2018-09-18T06:46:14.510Z,9.08
2018-09-18T06:48:42.553Z,9.10
2018-09-18T06:51:10.592Z,11.80
2018-09-18T06:53:38.648Z,9.73
2018-09-18T06:56:07.071Z,8.30
2018-09-18T06:58:35.124Z,8.50
2018-09-18T07:01:03.252Z,9.83
2018-09-18T07:03:31.310Z,9.47
2018-09-18T07:05:59.352Z,8.17
2018-09-18T07:08:27.709Z,7.70
2018-09-18T07:10:55.736Z,9.30
2018-09-18T07:13:23.964Z,9.30
2018-09-18T07:15:53.144Z,8.40
2018-09-18T07:18:21.237Z,8.65
2018-09-18T07:20:50.072Z,7.17
2018-09-18T07:23:18.242Z,7.47
2018-09-18T07:25:46.295Z,7.83
2018-09-18T07:28:15.353Z,6.90
2018-09-18T07:30:43.622Z,7.67
2018-09-18T07:33:11.674Z,7.33
2018-09-18T07:35:39.881Z,7.33
2018-09-18T07:38:07.927Z,7.07
2018-09-18T07:40:35.995Z,6.80
2018-09-18T07:43:04.864Z,7.15
2018-09-18T07:45:33.092Z,6.73
2018-09-18T07:48:01.165Z,7.03
2018-09-18T07:50:29.228Z,6.80
2018-09-18T07:52:57.274Z,5.97
2018-09-18T07:55:25.313Z,6.77
2018-09-18T07:57:53.437Z,6.90
2018-09-18T08:00:21.526Z,8.73
2018-09-18T08:02:50.258Z,6.77
2018-09-18T08:05:18.316Z,7.12
2018-09-18T08:07:46.395Z,6.07
2018-09-18T08:10:14.433Z,6.00
2018-09-18T08:12:42.493Z,6.87
2018-09-18T08:15:10.533Z,6.23
2018-09-18T08:17:38.577Z,6.07
2018-09-18T08:20:06.610Z,10.10
2018-09-18T08:22:34.645Z,5.40
2018-09-18T08:25:02.742Z,5.50
2018-09-18T08:27:31.194Z,5.33
2018-09-18T08:29:59.456Z,6.20
2018-09-18T08:32:27.751Z,5.07
2018-09-18T08:34:56.333Z,6.40
2018-09-18T08:37:24.393Z,6.20
2018-09-18T08:39:52.483Z,5.50
2018-09-18T08:42:20.478Z,5.50
2018-09-18T08:44:48.512Z,5.70
2018-09-18T08:47:16.615Z,5.40
2018-09-18T08:49:44.641Z,5.40
2018-09-18T08:52:12.856Z,4.90
2018-09-18T08:54:40.946Z,4.97
2018-09-18T08:57:08.968Z,6.03
2018-09-18T08:59:38.001Z,5.43
2018-09-18T09:02:06.074Z,4.93
2018-09-18T09:04:34.139Z,4.17
2018-09-18T09:07:02.160Z,6.20
2018-09-18T09:09:30.215Z,4.70
2018-09-18T09:11:58.227Z,6.23
2018-09-18T09:14:26.475Z,5.53
2018-09-18T09:16:54.457Z,6.10
2018-09-18T09:19:22.493Z,6.40
2018-09-18T09:21:50.944Z,5.43
2018-09-18T09:24:18.936Z,5.53
2018-09-18T09:26:47.052Z,7.70
2018-09-18T09:29:15.004Z,5.57
2018-09-18T09:31:43.052Z,6.93
2018-09-18T09:34:11.508Z,4.83
2018-09-18T09:36:39.511Z,4.90
2018-09-18T09:39:09.535Z,5.63
2018-09-18T09:41:37.570Z,6.37
2018-09-18T09:44:05.763Z,5.50
2018-09-18T09:46:33.760Z,5.10
2018-09-18T09:49:01.793Z,5.33
2018-09-18T09:51:29.884Z,5.53
2018-09-18T09:53:57.862Z,5.80
2018-09-18T09:56:26.092Z,5.87
2018-09-18T09:58:54.132Z,5.33
2018-09-18T10:01:27.457Z,5.57
2018-09-18T10:03:55.880Z,5.97
2018-09-18T10:06:23.928Z,6.97
2018-09-18T10:08:51.956Z,7.90
2018-09-18T10:11:20.118Z,7.53
2018-09-18T10:13:48.147Z,9.40
2018-09-18T10:16:16.477Z,7.47
2018-09-18T10:18:44.545Z,5.83
2018-09-18T10:21:12.587Z,6.80
2018-09-18T10:23:40.700Z,6.07
2018-09-18T10:26:08.781Z,6.57
2018-09-18T10:28:37.121Z,5.80
2018-09-18T10:31:05.157Z,7.43
2018-09-18T10:33:33.262Z,6.63
2018-09-18T10:36:01.344Z,6.30
2018-09-18T10:38:29.411Z,5.13
2018-09-18T10:40:57.539Z,6.87
2018-09-18T10:43:25.510Z,8.17
2018-09-18T10:45:53.558Z,5.87
2018-09-18T10:48:22.024Z,5.80
2018-09-18T10:50:50.027Z,5.67
2018-09-18T10:53:18.064Z,5.80
2018-09-18T10:55:46.215Z,5.97
2018-09-18T10:58:14.236Z,5.93
2018-09-18T11:00:42.649Z,7.73
2018-09-18T11:03:11.125Z,5.73
2018-09-18T11:05:39.408Z,6.40
2018-09-18T11:08:07.458Z,7.93
2018-09-18T11:10:35.583Z,6.43
2018-09-18T11:13:03.545Z,6.33
2018-09-18T11:15:31.816Z,7.10
2018-09-18T11:17:59.835Z,9.93
2018-09-18T11:20:27.880Z,6.70
2018-09-18T11:22:55.909Z,6.35
2018-09-18T11:25:24.189Z,7.40
2018-09-18T11:27:52.234Z,6.63
2018-09-18T11:30:20.260Z,9.13
2018-09-18T11:32:48.543Z,6.43
2018-09-18T11:35:16.579Z,6.17
2018-09-18T11:37:44.609Z,6.17
2018-09-18T11:40:12.625Z,28.57
2018-09-18T11:42:40.685Z,6.63
2018-09-18T11:45:08.733Z,8.43
2018-09-18T11:47:36.748Z,6.10
2018-09-18T11:50:05.197Z,6.35
2018-09-18T11:52:33.229Z,8.23
2018-09-18T11:55:01.256Z,6.87
2018-09-18T11:57:29.324Z,6.90
2018-09-18T11:59:57.601Z,7.90
2018-09-18T12:02:25.665Z,7.00
2018-09-18T12:04:53.698Z,6.87
2018-09-18T12:07:21.757Z,7.27
2018-09-18T12:09:49.920Z,7.37
2018-09-18T12:12:17.956Z,5.97
2018-09-18T12:14:46.101Z,5.93
2018-09-18T12:17:14.186Z,6.73
2018-09-18T12:19:42.273Z,4.93
2018-09-18T12:22:10.362Z,5.12
2018-09-18T12:24:38.622Z,5.67
2018-09-18T12:27:06.738Z,5.50
2018-09-18T12:29:35.083Z,6.10
2018-09-18T12:32:03.092Z,4.90
2018-09-18T12:34:31.501Z,4.37
2018-09-18T12:36:59.550Z,11.90
2018-09-18T12:39:27.577Z,5.23
2018-09-18T12:41:55.833Z,4.80
2018-09-18T12:44:23.828Z,4.60
2018-09-18T12:46:51.978Z,4.00
2018-09-18T12:49:20.128Z,5.63
2018-09-18T12:51:48.353Z,4.43
2018-09-18T12:54:16.469Z,3.95
2018-09-18T12:56:44.463Z,3.97
2018-09-18T12:59:12.616Z,3.90
2018-09-18T13:01:40.657Z,6.07
2018-09-18T13:04:08.708Z,6.47
2018-09-18T13:06:36.853Z,7.70
2018-09-18T13:09:07.654Z,7.17
2018-09-18T13:11:35.718Z,4.12
2018-09-18T13:14:10.565Z,3.97
2018-09-18T13:16:38.597Z,5.47
2018-09-18T13:19:06.973Z,4.17
2018-09-18T13:21:35.022Z,4.20
2018-09-18T13:24:03.055Z,4.80
2018-09-18T13:26:31.166Z,6.80
2018-09-18T13:28:59.225Z,4.23
2018-09-18T13:31:27.248Z,5.00
2018-09-18T13:33:55.370Z,3.70
2018-09-18T13:36:23.539Z,3.47
2018-09-18T13:38:51.892Z,4.63
2018-09-18T13:41:20.599Z,4.70
2018-09-18T13:43:48.526Z,4.00
2018-09-18T13:46:16.581Z,3.37
2018-09-18T13:48:44.584Z,3.70
2018-09-18T13:51:12.815Z,4.90
2018-09-18T13:53:40.829Z,4.03
2018-09-18T13:56:08.914Z,4.07
2018-09-18T13:58:37.598Z,5.83
2018-09-18T14:01:05.672Z,3.63
2018-09-18T14:03:33.659Z,11.00
2018-09-18T14:06:01.684Z,5.73
2018-09-18T14:08:29.717Z,3.20
2018-09-18T14:10:57.747Z,6.20
2018-09-18T14:13:25.776Z,6.33
2018-09-18T14:15:53.816Z,5.03
2018-09-18T14:18:21.864Z,4.47
2018-09-18T14:20:49.957Z,4.03
2018-09-18T14:23:17.979Z,4.17
2018-09-18T14:25:46.110Z,4.77
2018-09-18T14:28:14.143Z,4.60
2018-09-18T14:30:42.703Z,4.20
2018-09-18T14:33:10.796Z,6.17
2018-09-18T14:35:38.996Z,3.90
2018-09-18T14:38:07.112Z,5.43
2018-09-18T14:40:35.316Z,3.47
2018-09-18T14:43:03.188Z,4.00
2018-09-18T14:45:31.216Z,5.80
2018-09-18T14:47:59.255Z,6.80
2018-09-18T14:50:27.296Z,4.33
2018-09-18T14:52:55.348Z,5.00
2018-09-18T14:55:23.553Z,5.37
2018-09-18T14:57:51.578Z,4.00
2018-09-18T15:00:19.760Z,7.27
2018-09-18T15:02:48.772Z,4.10
2018-09-18T15:05:16.825Z,6.00
2018-09-18T15:07:44.856Z,4.70
2018-09-18T15:10:12.948Z,4.30
2018-09-18T15:12:40.973Z,6.53
2018-09-18T15:15:08.995Z,7.85
2018-09-18T15:17:37.289Z,4.37
2018-09-18T15:20:05.512Z,4.47
2018-09-18T15:22:33.604Z,5.40
2018-09-18T15:25:01.817Z,4.03
2018-09-18T15:27:29.880Z,4.80
2018-09-18T15:29:57.900Z,4.13
2018-09-18T15:32:25.944Z,3.73
2018-09-18T15:34:53.992Z,3.87
2018-09-18T15:37:22.340Z,5.23
2018-09-18T15:39:50.738Z,5.50
2018-09-18T15:42:18.687Z,3.90
2018-09-18T15:44:46.710Z,5.00
2018-09-18T15:47:14.757Z,7.83
2018-09-18T15:49:42.797Z,5.73
2018-09-18T15:52:10.936Z,6.00
2018-09-18T15:54:39.282Z,4.47
2018-09-18T15:57:07.336Z,6.43
2018-09-18T15:59:35.372Z,7.97
2018-09-18T16:02:03.670Z,4.03
2018-09-18T16:04:31.686Z,3.67
2018-09-18T16:06:59.725Z,7.17
2018-09-18T16:09:27.818Z,4.40
2018-09-18T16:11:55.827Z,6.17
2018-09-18T16:14:24.038Z,4.90
2018-09-18T16:16:52.092Z,5.30
2018-09-18T16:19:20.080Z,7.47
2018-09-18T16:21:48.183Z,3.80
2018-09-18T16:24:16.219Z,5.77
2018-09-18T16:26:44.276Z,4.00
2018-09-18T16:29:12.335Z,5.40
2018-09-18T16:31:40.364Z,4.70
2018-09-18T16:34:08.660Z,6.30
2018-09-18T16:36:36.887Z,6.53
2018-09-18T16:39:05.897Z,5.20
2018-09-18T16:41:33.965Z,5.90
2018-09-18T16:44:02.079Z,5.90
2018-09-18T16:46:30.145Z,5.90
2018-09-18T16:48:58.218Z,4.80
2018-09-18T16:51:26.290Z,5.70
2018-09-18T16:53:54.362Z,7.60
2018-09-18T16:56:22.471Z,6.70
2018-09-18T16:58:50.509Z,6.20
2018-09-18T17:01:18.549Z,8.23
2018-09-18T17:03:46.611Z,5.43
2018-09-18T17:06:14.786Z,5.63
2018-09-18T17:08:42.876Z,5.60
2018-09-18T17:11:10.966Z,7.63
2018-09-18T17:13:39.082Z,8.70
2018-09-18T17:16:07.156Z,11.30
2018-09-18T17:18:35.315Z,6.10
2018-09-18T17:21:03.319Z,7.67
2018-09-18T17:23:31.392Z,8.37
2018-09-18T17:25:59.464Z,10.40
2018-09-18T17:28:27.628Z,7.80
2018-09-18T17:30:55.640Z,6.77
2018-09-18T17:33:23.779Z,10.67
2018-09-18T17:35:51.939Z,8.27
2018-09-18T17:38:20.002Z,6.07
2018-09-18T17:40:48.099Z,8.30
2018-09-18T17:43:16.220Z,7.10
2018-09-18T17:45:44.324Z,9.17
2018-09-18T17:48:12.511Z,6.47
2018-09-18T17:50:40.588Z,6.07
2018-09-18T17:53:08.635Z,6.53
2018-09-18T17:55:36.704Z,7.70
2018-09-18T17:58:04.944Z,8.03
2018-09-18T18:00:32.997Z,9.17
2018-09-18T18:03:01.079Z,10.47
2018-09-18T18:05:29.198Z,8.27
2018-09-18T18:07:57.224Z,6.53
2018-09-18T18:10:25.290Z,7.63
2018-09-18T18:12:53.343Z,8.77
2018-09-18T18:15:21.401Z,5.30
2018-09-18T18:17:49.506Z,7.13
2018-09-18T18:20:17.962Z,9.20
2018-09-18T18:22:45.984Z,8.87
2018-09-18T18:25:14.024Z,9.63
2018-09-18T18:27:42.112Z,7.03
2018-09-18T18:30:10.442Z,7.90
2018-09-18T18:32:38.471Z,9.80
2018-09-18T18:35:06.516Z,8.90
2018-09-18T18:37:34.577Z,10.10
2018-09-18T18:40:02.649Z,8.03
2018-09-18T18:42:30.730Z,6.20
2018-09-18T18:44:58.802Z,9.10
2018-09-18T18:47:26.959Z,6.23
2018-09-18T18:49:55.002Z,10.00
2018-09-18T18:52:42.631Z,7.33
2018-09-18T18:55:10.696Z,9.20
2018-09-18T18:57:38.786Z,7.07
2018-09-18T19:00:07.345Z,8.13
2018-09-18T19:02:35.420Z,10.10
2018-09-18T19:05:04.604Z,8.10
2018-09-18T19:07:32.817Z,8.40
2018-09-18T19:10:00.924Z,8.07
2018-09-18T19:12:29.089Z,10.40
2018-09-18T19:14:57.127Z,10.00
2018-09-18T19:17:25.379Z,13.03
2018-09-18T19:19:53.432Z,11.23
2018-09-18T19:22:21.496Z,10.25
2018-09-18T19:24:49.545Z,12.30
2018-09-18T19:27:17.674Z,10.37
2018-09-18T19:29:45.774Z,11.33
2018-09-18T19:32:13.847Z,10.50
2018-09-18T19:34:41.905Z,10.50
2018-09-18T19:37:10.138Z,10.67
2018-09-18T19:39:38.196Z,8.83
2018-09-18T19:42:06.259Z,10.63
2018-09-18T19:44:34.328Z,10.10
2018-09-18T19:47:02.380Z,10.57
2018-09-18T19:49:30.436Z,7.07
2018-09-18T19:51:58.628Z,8.30
2018-09-18T19:54:26.687Z,7.00
2018-09-18T19:56:54.734Z,11.37
2018-09-18T19:59:22.847Z,11.97
2018-09-18T20:01:50.903Z,10.50
2018-09-18T20:04:18.940Z,8.70
2018-09-18T20:06:47.008Z,7.97
2018-09-18T20:09:15.160Z,10.10
2018-09-18T20:11:43.138Z,8.77
2018-09-18T20:14:11.287Z,12.40
2018-09-18T20:16:39.461Z,11.78
2018-09-18T20:19:07.537Z,10.13
2018-09-18T20:21:35.557Z,11.33
2018-09-18T20:24:04.599Z,9.18
2018-09-18T20:26:32.671Z,8.43
2018-09-18T20:29:00.879Z,10.90
2018-09-18T20:31:28.826Z,7.40
2018-09-18T20:33:56.904Z,11.20
2018-09-18T20:36:25.083Z,8.37
2018-09-18T20:38:53.027Z,12.13
2018-09-18T20:41:21.084Z,8.07
2018-09-18T20:43:49.188Z,10.10
2018-09-18T20:46:17.249Z,7.27
2018-09-18T20:48:45.385Z,9.07
2018-09-18T20:51:13.507Z,8.88
2018-09-18T20:53:41.585Z,8.13
2018-09-18T20:56:10.131Z,6.57
2018-09-18T20:58:38.393Z,16.83
2018-09-18T21:01:06.484Z,8.70
2018-09-18T21:03:34.529Z,11.22
2018-09-18T21:06:02.626Z,6.70
2018-09-18T21:08:30.737Z,8.60
2018-09-18T21:10:58.726Z,11.60
2018-09-18T21:13:26.780Z,9.83
2018-09-18T21:15:54.833Z,10.33
2018-09-18T21:18:23.486Z,9.33
2018-09-18T21:20:51.586Z,8.90
2018-09-18T21:23:19.612Z,10.47
2018-09-18T21:26:03.987Z,10.73
2018-09-18T21:28:32.256Z,8.63
2018-09-18T21:31:00.404Z,9.73
2018-09-18T21:33:28.504Z,8.43
2018-09-18T21:35:56.567Z,8.57
2018-09-18T21:38:24.601Z,9.20
2018-09-18T21:40:52.686Z,9.13
2018-09-18T21:43:20.896Z,9.30
2018-09-18T21:45:49.417Z,5.40
2018-09-18T21:48:18.012Z,10.37
2018-09-18T21:50:46.076Z,6.93
2018-09-18T21:53:14.905Z,6.97
2018-09-18T21:55:43.740Z,10.23
2018-09-18T21:58:11.801Z,7.53
2018-09-18T22:00:40.020Z,8.70
2018-09-18T22:03:08.075Z,6.70
2018-09-18T22:05:36.177Z,10.10
2018-09-18T22:08:04.596Z,7.20
2018-09-18T22:10:32.669Z,12.07
2018-09-18T22:13:01.395Z,6.10
2018-09-18T22:15:30.074Z,6.80
2018-09-18T22:17:58.363Z,8.03
2018-09-18T22:20:26.455Z,9.37
2018-09-18T22:22:54.509Z,12.17
2018-09-18T22:25:23.203Z,10.00
2018-09-18T22:28:14.730Z,11.13
2018-09-18T22:30:42.972Z,9.57
2018-09-18T22:33:11.025Z,9.78
2018-09-18T22:35:39.103Z,10.10
2018-09-18T22:38:07.190Z,8.17
2018-09-18T22:40:35.387Z,10.77
2018-09-18T22:43:03.474Z,9.40
2018-09-18T22:45:31.525Z,12.57
2018-09-18T22:47:59.717Z,10.00
2018-09-18T22:50:27.762Z,10.57
2018-09-18T22:52:55.843Z,10.20
2018-09-18T22:55:23.897Z,7.97
2018-09-18T22:57:51.967Z,12.00
2018-09-18T23:00:20.039Z,11.57
2018-09-18T23:02:48.133Z,10.70
2018-09-18T23:05:16.179Z,10.03
2018-09-18T23:07:44.236Z,10.70
2018-09-18T23:10:12.450Z,12.67
2018-09-18T23:12:40.509Z,11.85
2018-09-18T23:15:08.567Z,17.00
2018-09-18T23:17:36.620Z,8.43
2018-09-18T23:20:05.786Z,11.50
2018-09-18T23:22:33.903Z,11.17
2018-09-18T23:25:01.957Z,12.90
2018-09-18T23:27:29.996Z,11.97
2018-09-18T23:29:58.054Z,10.20
2018-09-18T23:32:26.114Z,12.27
2018-09-18T23:34:54.171Z,11.40
2018-09-18T23:37:22.247Z,11.55
2018-09-18T23:39:50.325Z,11.40
2018-09-18T23:42:18.466Z,17.23
2018-09-18T23:44:46.463Z,11.33
2018-09-18T23:47:14.543Z,11.20
2018-09-18T23:49:42.611Z,10.70
2018-09-18T23:52:10.690Z,10.83
2018-09-18T23:54:38.742Z,9.20
2018-09-18T23:57:06.773Z,11.97
2018-09-18T23:59:34.825Z,6.87
